createdAt,value
2022-12-23T00:04:11.960Z,27.45
2022-12-23T00:09:15.318Z,31.58
2022-12-23T00:14:36.381Z,21.25
2022-12-23T00:19:41.079Z,25.52
2022-12-23T00:24:44.369Z,25.52
2022-12-23T00:29:47.635Z,26.88
2022-12-23T00:34:52.361Z,25.55
2022-12-23T00:40:12.980Z,26.23
2022-12-23T00:45:19.381Z,26.00
2022-12-23T00:50:25.472Z,24.33
2022-12-23T00:55:29.215Z,25.40
2022-12-23T01:00:49.973Z,23.38
2022-12-23T01:05:59.082Z,20.73
2022-12-23T01:11:04.478Z,26.38
2022-12-23T01:16:14.994Z,19.58
2022-12-23T01:21:22.374Z,26.05
2022-12-23T01:26:25.998Z,30.83
2022-12-23T01:31:29.895Z,26.48
2022-12-23T01:36:34.724Z,20.33
2022-12-23T01:41:55.189Z,23.48
2022-12-23T01:46:58.471Z,15.85
2022-12-23T01:52:03.556Z,24.23
2022-12-23T01:57:07.259Z,25.27
2022-12-23T02:02:28.112Z,24.02
2022-12-23T02:07:50.770Z,24.52
2022-12-23T02:13:02.858Z,23.93
2022-12-23T02:18:28.903Z,25.83
2022-12-23T02:24:10.597Z,22.50
2022-12-23T02:29:36.170Z,21.75
2022-12-23T02:34:47.903Z,15.93
2022-12-23T02:39:56.220Z,19.85
2022-12-23T02:45:04.124Z,26.17
2022-12-23T02:50:16.616Z,20.48
2022-12-23T02:55:24.287Z,20.73
2022-12-23T03:00:27.973Z,26.48
2022-12-23T03:05:39.470Z,27.88
2022-12-23T03:10:56.747Z,22.70
2022-12-23T03:16:11.287Z,15.60
2022-12-23T03:21:23.739Z,22.27
2022-12-23T03:26:32.478Z,20.00
2022-12-23T03:31:40.818Z,24.45
2022-12-23T03:36:49.841Z,24.70
2022-12-23T03:41:58.245Z,23.70
2022-12-23T03:47:08.609Z,27.02
2022-12-23T03:52:21.565Z,22.67
2022-12-23T03:57:29.681Z,14.93
2022-12-23T04:02:40.204Z,27.48
2022-12-23T04:07:49.232Z,25.05
2022-12-23T04:12:53.628Z,25.67
2022-12-23T04:17:58.258Z,24.75
2022-12-23T04:23:02.860Z,25.80
2022-12-23T04:28:06.444Z,27.60
2022-12-23T04:33:11.841Z,27.40
2022-12-23T04:38:16.423Z,28.80
2022-12-23T04:43:19.655Z,29.20
2022-12-23T04:48:23.037Z,28.52
2022-12-23T04:53:27.919Z,24.00
2022-12-23T04:58:31.163Z,22.52
2022-12-23T05:03:35.047Z,24.45
2022-12-23T05:08:41.030Z,27.80
2022-12-23T05:13:44.347Z,31.40
2022-12-23T05:18:47.669Z,20.15
2022-12-23T05:23:52.286Z,23.42
2022-12-23T05:28:56.156Z,25.17
2022-12-23T05:34:05.688Z,26.02
2022-12-23T05:39:12.221Z,21.73
2022-12-23T05:44:15.496Z,26.08
2022-12-23T05:49:18.914Z,24.65
2022-12-23T05:54:23.597Z,23.67
2022-12-23T05:59:30.900Z,26.55
2022-12-23T06:04:35.008Z,25.05
2022-12-23T06:09:39.755Z,22.15
2022-12-23T06:14:43.133Z,18.27
2022-12-23T06:19:47.506Z,21.65
2022-12-23T06:24:52.412Z,22.83
2022-12-23T06:29:56.280Z,31.52
2022-12-23T06:35:00.015Z,25.27
2022-12-23T06:40:05.338Z,23.88
2022-12-23T06:45:09.821Z,15.23
2022-12-23T06:50:13.274Z,22.70
2022-12-23T06:55:18.333Z,23.98
2022-12-23T07:00:22.120Z,25.70
2022-12-23T07:05:25.576Z,28.92
2022-12-23T07:10:30.252Z,27.08
2022-12-23T07:15:34.114Z,25.77
2022-12-23T07:20:37.314Z,23.23
2022-12-23T07:25:42.271Z,24.30
2022-12-23T07:30:45.453Z,17.63
2022-12-23T07:35:48.599Z,23.92
2022-12-23T07:40:53.292Z,26.35
2022-12-23T07:46:00.284Z,26.60
2022-12-23T07:51:04.969Z,22.08
2022-12-23T07:56:10.037Z,26.30
2022-12-23T08:01:13.318Z,18.48
2022-12-23T08:06:17.853Z,18.90
2022-12-23T08:11:22.465Z,17.55
2022-12-23T08:16:25.764Z,18.45
2022-12-23T08:21:28.981Z,22.67
2022-12-23T08:26:34.178Z,21.02
2022-12-23T08:31:37.617Z,19.90
2022-12-23T08:36:41.165Z,15.10
2022-12-23T08:41:47.975Z,21.70
2022-12-23T08:46:51.732Z,20.98
2022-12-23T08:51:55.277Z,17.15
2022-12-23T08:57:00.020Z,21.90
2022-12-23T09:02:03.946Z,21.63
2022-12-23T09:07:07.409Z,23.52
2022-12-23T09:12:12.037Z,21.13
2022-12-23T09:17:15.329Z,21.25
2022-12-23T09:22:18.520Z,15.20
2022-12-23T09:27:23.217Z,20.38
2022-12-23T09:32:26.420Z,21.50
2022-12-23T09:37:29.630Z,17.90
2022-12-23T09:42:49.358Z,16.15
2022-12-23T09:47:56.120Z,14.40
2022-12-23T09:53:03.202Z,14.55
2022-12-23T09:58:16.439Z,18.40
2022-12-23T10:03:26.629Z,15.73
2022-12-23T10:08:34.575Z,8.48
2022-12-23T10:13:43.706Z,14.77
2022-12-23T10:18:53.791Z,14.88
2022-12-23T10:23:57.282Z,16.83
2022-12-23T10:29:12.813Z,13.85
2022-12-23T10:34:23.853Z,14.27
2022-12-23T10:39:38.750Z,15.13
2022-12-23T10:45:15.744Z,15.07
2022-12-23T10:50:46.409Z,16.15
2022-12-23T10:55:51.681Z,13.52
2022-12-23T11:00:59.417Z,14.13
2022-12-23T11:06:03.411Z,14.07
2022-12-23T11:11:08.221Z,12.10
2022-12-23T11:16:23.327Z,11.23
2022-12-23T11:21:27.634Z,12.23
2022-12-23T11:26:30.965Z,14.60
2022-12-23T11:31:36.893Z,13.68
2022-12-23T11:36:40.445Z,12.75
2022-12-23T11:41:47.808Z,13.18
2022-12-23T11:46:52.809Z,7.88
2022-12-23T11:52:13.877Z,13.77
2022-12-23T11:57:20.433Z,12.50
2022-12-23T12:02:37.158Z,8.52
2022-12-23T12:07:43.507Z,10.10
2022-12-23T12:12:52.795Z,7.95
2022-12-23T12:18:00.371Z,8.52
2022-12-23T12:23:10.406Z,7.82
2022-12-23T12:28:16.510Z,10.30
2022-12-23T12:33:24.753Z,6.18
2022-12-23T12:38:32.515Z,7.70
2022-12-23T12:43:39.100Z,8.38
2022-12-23T12:48:49.801Z,7.82
2022-12-23T12:54:05.488Z,6.20
2022-12-23T12:59:16.518Z,7.13
2022-12-23T13:04:58.112Z,4.43
2022-12-23T13:10:08.159Z,6.47
2022-12-23T13:15:21.451Z,6.32
2022-12-23T13:20:37.689Z,5.85
2022-12-23T13:25:46.031Z,5.78
2022-12-23T13:30:57.530Z,5.82
2022-12-23T13:36:14.630Z,5.13
2022-12-23T13:41:26.934Z,6.32
2022-12-23T13:46:42.089Z,5.33
2022-12-23T13:51:55.565Z,7.00
2022-12-23T13:57:08.640Z,4.43
2022-12-23T14:07:34.758Z,7.25
2022-12-23T14:12:40.964Z,7.70
2022-12-23T14:17:53.383Z,9.20
2022-12-23T14:23:09.569Z,8.18
2022-12-23T14:28:27.421Z,7.70
2022-12-23T14:33:35.713Z,9.98
2022-12-23T14:38:40.644Z,6.43
2022-12-23T14:43:59.521Z,9.73
2022-12-23T14:49:38.836Z,7.05
2022-12-23T14:55:06.063Z,7.15
2022-12-23T15:00:11.211Z,7.20
2022-12-23T15:05:15.180Z,6.35
2022-12-23T15:10:24.824Z,11.40
2022-12-23T15:15:30.885Z,9.65
2022-12-23T15:20:35.387Z,9.48
2022-12-23T15:25:44.769Z,8.35
2022-12-23T15:30:50.792Z,13.00
2022-12-23T15:35:54.644Z,13.98
2022-12-23T15:41:01.703Z,15.70
2022-12-23T15:46:10.145Z,10.15
2022-12-23T15:51:21.953Z,13.25
2022-12-23T15:56:42.486Z,11.52
2022-12-23T16:01:45.930Z,15.05
2022-12-23T16:06:51.814Z,11.73
2022-12-23T16:11:59.827Z,17.85
2022-12-23T16:17:19.689Z,14.05
2022-12-23T16:22:38.602Z,13.27
2022-12-23T16:27:47.551Z,15.90
2022-12-23T16:32:54.611Z,14.98
2022-12-23T16:38:16.159Z,13.70
2022-12-23T16:43:21.792Z,12.93
2022-12-23T16:48:30.894Z,13.48
2022-12-23T16:53:34.507Z,14.60
2022-12-23T16:58:39.161Z,17.13
2022-12-23T17:03:42.616Z,13.32
2022-12-23T17:08:45.969Z,16.25
2022-12-23T17:13:51.003Z,11.40
2022-12-23T17:18:54.877Z,15.90
2022-12-23T17:24:05.746Z,15.30
2022-12-23T17:29:13.589Z,15.52
2022-12-23T17:34:19.025Z,17.70
2022-12-23T17:39:23.522Z,16.10
2022-12-23T17:44:28.636Z,16.38
2022-12-23T17:49:31.925Z,18.45
2022-12-23T17:54:35.281Z,15.43
2022-12-23T17:59:40.033Z,14.13
2022-12-23T18:04:43.530Z,11.90
2022-12-23T18:09:47.254Z,16.17
2022-12-23T18:14:51.929Z,18.02
2022-12-23T18:19:55.185Z,14.60
2022-12-23T18:24:59.647Z,14.55
2022-12-23T18:30:04.941Z,15.60
2022-12-23T18:35:31.597Z,16.13
2022-12-23T18:40:34.930Z,13.18
2022-12-23T18:45:42.022Z,14.18
2022-12-23T18:50:46.772Z,14.48
2022-12-23T18:55:50.762Z,16.50
2022-12-23T19:00:55.501Z,16.88
2022-12-23T19:06:06.730Z,14.30
2022-12-23T19:11:14.253Z,15.75
2022-12-23T19:16:21.617Z,11.68
2022-12-23T19:21:24.939Z,12.00
2022-12-23T19:26:28.198Z,14.40
2022-12-23T19:31:34.121Z,15.02
2022-12-23T19:36:38.889Z,10.48
2022-12-23T19:41:42.143Z,13.98
2022-12-23T19:46:48.007Z,17.00
2022-12-23T19:51:51.246Z,15.68
2022-12-23T19:56:54.537Z,16.38
2022-12-23T20:01:59.355Z,13.63
2022-12-23T20:07:02.804Z,13.45
2022-12-23T20:12:06.829Z,10.73
2022-12-23T20:17:11.469Z,13.95
2022-12-23T20:22:14.701Z,13.60
2022-12-23T20:27:24.290Z,16.45
2022-12-23T20:37:35.837Z,12.52
2022-12-23T20:42:39.156Z,11.75
2022-12-23T20:47:43.872Z,13.00
2022-12-23T20:52:47.680Z,11.20
2022-12-23T20:57:51.075Z,9.15
2022-12-23T21:02:56.051Z,13.35
2022-12-23T21:07:59.264Z,10.82
2022-12-23T21:13:03.629Z,12.70
2022-12-23T21:18:08.384Z,11.32
2022-12-23T21:23:11.776Z,9.45
2022-12-23T21:28:15.151Z,12.63
2022-12-23T21:33:20.092Z,10.00
2022-12-23T21:38:23.559Z,7.85
2022-12-23T21:43:27.058Z,11.50
2022-12-23T21:48:35.051Z,12.13
2022-12-23T21:53:38.805Z,10.63
2022-12-23T21:58:42.366Z,12.35
2022-12-23T22:03:48.810Z,7.78
2022-12-23T22:08:54.046Z,10.50
2022-12-23T22:13:57.873Z,8.10
2022-12-23T22:19:03.357Z,11.32
2022-12-23T22:24:08.723Z,11.13
2022-12-23T22:29:12.699Z,11.35
2022-12-23T22:34:19.399Z,10.65
2022-12-23T22:39:23.047Z,14.23
2022-12-23T22:44:26.622Z,13.02
2022-12-23T22:49:31.310Z,10.40
2022-12-23T22:54:34.563Z,10.18
2022-12-23T22:59:38.177Z,12.00
2022-12-23T23:04:42.881Z,14.73
2022-12-23T23:09:46.266Z,13.77
2022-12-23T23:14:55.478Z,9.38
2022-12-23T23:20:00.170Z,13.32
2022-12-23T23:25:03.402Z,9.77
2022-12-23T23:30:07.481Z,10.95
2022-12-23T23:35:12.471Z,13.75
2022-12-23T23:40:16.073Z,13.77
2022-12-23T23:45:19.369Z,12.93
2022-12-23T23:50:23.978Z,10.88
2022-12-23T23:55:27.221Z,12.52
